Flight Track Log - Related Links

Times and Time Zones

All times are in EDT time to prevent confusion due to time zone crossing. See the SWA1826 flight status page for this flight to view local times or setup timezone preferences in your user account.

Time Position Orientation Groundspeed Altitude Reporting Facility
EDT Latitude Longitude Course Direction KTS MPH feet Rate Location/Type
Mon 11:32:33 AM 33.4333 -111.9833 90° East 164 189 1,800  Level Phoenix TRACON
Mon 11:33:04 AM 33.4333 -111.9667 90° East 167 192 2,800 1,780 Climbing Phoenix TRACON
Mon 11:34:04 AM 33.4361 -111.9036 87° East 200 230 4,500 2,262 Climbing Albuquerque Center
Mon 11:35:06 AM 33.4019 -111.8614 134° Southeast 224 258 7,400 2,613 Climbing Albuquerque Center
Mon 11:36:08 AM 33.3592 -111.9078 222° Southwest 239 275 9,900 2,129 Climbing Albuquerque Center
Mon 11:37:10 AM 33.3711 -112.0058 278° West 300 345 11,800 2,468 Climbing Albuquerque Center
Mon 11:38:12 AM 33.3822 -112.1206 277° West 342 394 15,000 3,290 Climbing Albuquerque Center
Mon 11:39:14 AM 33.3972 -112.2631 277° West 357 411 18,600 3,000 Climbing Albuquerque Center
Mon 11:40:16 AM 33.4103 -112.3878 277° West 375 432 21,200 2,516 Climbing Albuquerque Center
Mon 11:41:18 AM 33.4228 -112.5167 277° West 387 445 23,800 2,244 Climbing Albuquerque Center
Mon 11:42:19 AM 33.4353 -112.6464 277° West 398 458 25,800 1,854 Climbing Albuquerque Center
Mon 11:43:21 AM 33.4483 -112.7817 277° West 406 467 27,600 1,887 Climbing Albuquerque Center
Mon 11:44:23 AM 33.4769 -112.9472 282° West 421 484 29,700 1,984 Climbing Albuquerque Center
Mon 11:45:25 AM 33.5039 -113.0878 283° West 431 496 31,700 2,032 Climbing Albuquerque Center
Mon 11:46:27 AM 33.5294 -113.2219 283° West 423 487 33,900 1,935 Climbing Albuquerque Center
Mon 11:47:29 AM 33.5542 -113.3536 283° West 412 474 35,700 1,500 Climbing Albuquerque Center
Mon 11:48:31 AM 33.5781 -113.4819 283° West 402 463 37,000 1,122 Climbing Albuquerque Center
Mon 11:49:32 AM 33.6028 -113.6136 283° West 405 466 38,000 488 Climbing Albuquerque Center
Mon 11:50:34 AM 33.6297 -113.7517 283° West 403 464 38,000  Level Albuquerque Center
Mon 11:51:36 AM 33.6558 -113.8825 284° West 402 463 38,000  Level Albuquerque Center
Mon 11:52:38 AM 33.6881 -114.0372 284° West 401 461 38,000  Level Albuquerque Center
Mon 11:53:40 AM 33.7128 -114.1681 283° West 402 463 38,000  Level Albuquerque Center
Mon 11:54:42 AM 33.7372 -114.2858 284° West 397 457 38,000  Level Albuquerque Center
Mon 11:55:48 AM 33.7661 -114.4278 284° West 398 458 38,000  Level Los Angeles Center
Mon 11:56:50 AM 33.7914 -114.5575 283° West 399 459 38,000  Level Los Angeles Center
Mon 11:57:52 AM 33.8222 -114.7128 283° West 400 460 38,000  Level Los Angeles Center
Mon 11:58:54 AM 33.8481 -114.8431 283° West 402 463 38,000  Level Los Angeles Center
Mon 11:59:56 AM 33.8731 -114.9758 283° West 406 467 38,000  Level Los Angeles Center
Mon 12:00:58 PM 33.8992 -115.1086 283° West 408 470 38,000  Level Los Angeles Center
Mon 12:02:00 PM 33.9247 -115.2417 283° West 409 471 38,000  Level Los Angeles Center
Mon 12:03:02 PM 33.9553 -115.4017 283° West 410 472 38,000  Level Los Angeles Center
Mon 12:04:04 PM 33.9803 -115.5369 283° West 414 476 38,000  Level Los Angeles Center
Mon 12:05:06 PM 34.0056 -115.6706 283° West 412 474 38,000  Level Los Angeles Center
Mon 12:06:08 PM 34.0306 -115.8056 283° West 414 476 38,000  Level Los Angeles Center
Mon 12:07:10 PM 34.0561 -115.9378 283° West 409 471 38,000  Level Los Angeles Center
Mon 12:08:12 PM 34.0794 -116.0714 282° West 408 470 38,000  Level Los Angeles Center
Mon 12:09:15 PM 34.1100 -116.2300 283° West 407 468 38,000  Level Los Angeles Center
Mon 12:10:17 PM 34.1314 -116.3542 282° West 405 466 38,000  Level Los Angeles Center
Mon 12:11:19 PM 34.1556 -116.4872 282° West 407 468 38,000  Level Los Angeles Center
Mon 12:12:21 PM 34.1792 -116.6194 282° West 403 464 38,000  Level Los Angeles Center
Mon 12:13:23 PM 34.2111 -116.7817 283° West 412 474 38,000  Level Los Angeles Center
Mon 12:14:25 PM 34.2556 -116.9094 293° West 414 476 38,000  Level Los Angeles Center
Mon 12:15:27 PM 34.2975 -117.0392 291° West 414 476 38,000  Level Los Angeles Center
Mon 12:16:29 PM 34.3397 -117.1678 292° West 412 474 38,000  Level Los Angeles Center
Mon 12:17:32 PM 34.3900 -117.3175 292° West 413 475 38,000  Level Los Angeles Center
Mon 12:18:34 PM 34.4261 -117.4269 292° West 414 476 38,000  Level Los Angeles Center
Mon 12:19:36 PM 34.4756 -117.5850 291° West 417 480 38,000  Level Los Angeles Center
Mon 12:20:38 PM 34.5181 -117.7150 292° West 416 479 38,000  Level Los Angeles Center
Mon 12:21:40 PM 34.5617 -117.8467 292° West 417 480 38,000  Level Los Angeles Center
Mon 12:22:42 PM 34.6025 -117.9772 291° West 414 476 38,000  Level Los Angeles Center
Mon 12:23:44 PM 34.6497 -118.1075 294° West 419 482 38,000  Level Los Angeles Center
Mon 12:24:46 PM 34.7089 -118.2292 301° West 417 480 38,000  Level Los Angeles Center
Mon 12:25:49 PM 34.7669 -118.3517 300° West 418 481 38,000  Level Los Angeles Center
Mon 12:26:51 PM 34.8281 -118.4808 300° West 411 473 38,000  Level Los Angeles Center
Mon 12:27:53 PM 34.8856 -118.6022 300° West 414 476 38,000  Level Los Angeles Center
Mon 12:28:55 PM 34.9503 -118.7431 299° West 414 476 38,000  Level Los Angeles Center
Mon 12:29:57 PM 35.0072 -118.8647 300° West 416 479 38,000  Level Los Angeles Center
Mon 12:30:59 PM 35.0644 -118.9878 300° West 418 481 38,000  Level Los Angeles Center
Mon 12:32:01 PM 35.1217 -119.1094 300° West 414 476 38,000  Level Los Angeles Center
Mon 12:33:03 PM 35.1925 -119.2569 300° West 418 481 38,000  Level Los Angeles Center
Mon 12:34:05 PM 35.2492 -119.3817 299° West 419 482 38,000  Level Los Angeles Center
Mon 12:35:08 PM 35.3044 -119.5056 299° West 419 482 38,000  Level Los Angeles Center
Mon 12:36:10 PM 35.3611 -119.6292 299° West 418 481 38,000  Level Los Angeles Center
Mon 12:37:11 PM 35.4150 -119.7517 298° West 415 478 38,000  Level Oakland Center
Mon 12:38:12 PM 35.4708 -119.8728 300° West 414 476 38,000  Level Oakland Center
Mon 12:39:14 PM 35.5378 -120.0192 299° West 414 476 38,000  Level Oakland Center
Mon 12:40:15 PM 35.5928 -120.1431 299° West 417 480 38,000  Level Oakland Center
Mon 12:41:17 PM 35.6486 -120.2653 299° West 417 480 38,000  Level Oakland Center
Mon 12:42:18 PM 35.7036 -120.3889 299° West 419 482 38,000  Level Oakland Center
Mon 12:43:19 PM 35.7767 -120.4986 309° West 421 484 38,000  Level Oakland Center
Mon 12:44:21 PM 35.8556 -120.6033 313° West 419 482 38,000 -244 Level Oakland Center
Mon 12:45:22 PM 35.9506 -120.7322 312° West 423 487 37,500 -1,512 Descending Oakland Center
Mon 12:46:24 PM 36.0286 -120.8356 313° West 413 475 34,900 -2,829 Descending Oakland Center
Mon 12:47:25 PM 36.1086 -120.9403 313° West 418 481 31,700 -2,976 Descending Oakland Center
Mon 12:48:27 PM 36.1875 -121.0486 312° West 422 486 28,800 -2,634 Descending Oakland Center
Mon 12:49:28 PM 36.2644 -121.1539 312° West 415 478 26,300 -2,459 Descending Oakland Center
Mon 12:50:29 PM 36.3408 -121.2572 313° West 408 470 23,800 -2,439 Descending Oakland Center
Mon 12:51:31 PM 36.4147 -121.3583 312° West 397 457 21,300 -2,976 Descending Oakland Center
Mon 12:52:32 PM 36.5058 -121.4283 328° Northwest 405 466 17,700 -3,073 Descending Oakland Center
Mon 12:53:34 PM 36.6161 -121.4542 349° North 402 463 15,000 -1,902 Descending Oakland Center
Mon 12:54:35 PM 36.7367 -121.4833 349° North 364 419 13,800 -1,033 Descending Oakland Center
Mon 12:55:36 PM 36.8192 -121.5056 348° North 307 353 12,900 -1,122 Descending Oakland Center
Mon 12:56:38 PM 36.8861 -121.5311 343° North 288 331 11,500 -1,415 Descending Oakland Center
Mon 12:57:39 PM 36.9550 -121.5786 331° Northwest 284 327 10,000 -1,610 Descending Oakland Center
Mon 12:58:41 PM 37.0361 -121.6317 332° Northwest 277 319 8,200 -1,610 Descending Oakland Center
Mon 12:59:42 PM 37.1047 -121.6728 334° Northwest 273 314 6,700 -1,481 Descending Oakland Center
Mon 01:00:02 PM 37.1333 -121.6833 344° North 271 312 6,200 -1,574 Descending Northern Cal TRACON
Mon 01:00:43 PM 37.1706 -121.7178 324° Northwest 269 310 5,100 -1,806 Descending Oakland Center
Mon 01:01:45 PM 37.2253 -121.7761 320° Northwest 266 306 3,100 -1,512 Descending Oakland Center
Mon 01:02:46 PM 37.2725 -121.8322 317° Northwest 245 282 2,000 -878 Descending Oakland Center
Mon 01:03:48 PM 37.3086 -121.8717 319° Northwest 197 227 1,300 -683 Descending Oakland Center
Mon 01:04:49 PM 37.3372 -121.9036 318° Northwest 163 188 600 -689 Descending Oakland Center
Mon 01:07:00 PM 37.3500 -121.9167 North  Level FlightAware Approximate

Login

Don't have an account? Register now (free) for customized features, flight alerts, and more!